Time;durP1;ratioP1;P1;durP2;ratioP2;P2;SDS_P1;SDS_P2;PMS_P1;PMS_P2;Temp;Humidity;BMP_temperature;BMP_pressure;BME280_temperature;BME280_humidity;BME280_pressure;Samples;Min_cycle;Max_cycle;Signal;HPM_P1;HPM_P2
2022/04/03 00:01:45;;;;;;;2.80;1.60;;;4.70;1.00;;;;;;5066899;28;20282;-54
2022/04/03 00:04:10;;;;;;;3.87;1.70;;;4.60;1.00;;;;;;5067903;28;20209;-55
2022/04/03 00:06:36;;;;;;;2.17;1.97;;;4.50;1.00;;;;;;5068047;28;20191;-54
2022/04/03 00:09:02;;;;;;;3.30;1.90;;;4.30;1.00;;;;;;5069359;28;20226;-57
2022/04/03 00:11:28;;;;;;;2.00;1.83;;;4.40;1.00;;;;;;5065216;28;20226;-54
2022/04/03 00:13:54;;;;;;;2.33;2.10;;;4.30;1.00;;;;;;5067344;28;20175;-57
2022/04/03 00:16:20;;;;;;;2.97;2.30;;;4.50;1.00;;;;;;5068474;28;20441;-55
2022/04/03 00:18:46;;;;;;;3.37;2.23;;;4.50;1.00;;;;;;5064446;28;20890;-56
2022/04/03 00:21:13;;;;;;;3.40;2.60;;;4.30;1.00;;;;;;5066357;28;20313;-56
2022/04/03 00:23:39;;;;;;;3.57;2.00;;;4.50;1.00;;;;;;5066871;28;20219;-55
2022/04/03 00:26:05;;;;;;;5.87;1.83;;;4.40;1.00;;;;;;5062090;28;20481;-54
2022/04/03 00:28:30;;;;;;;2.03;1.83;;;4.40;1.00;;;;;;5068092;28;20507;-55
2022/04/03 00:30:56;;;;;;;7.33;2.03;;;4.20;1.00;;;;;;5068505;28;20183;-55
2022/04/03 00:33:22;;;;;;;3.40;2.10;;;4.10;1.00;;;;;;5066207;28;20222;-55
2022/04/03 00:35:50;;;;;;;2.20;2.00;;;4.10;1.00;;;;;;5068095;28;20882;-54
2022/04/03 00:38:15;;;;;;;3.30;2.40;;;4.10;1.00;;;;;;5065024;28;20681;-55
2022/04/03 00:40:42;;;;;;;3.27;2.40;;;4.10;1.00;;;;;;5069615;28;20536;-54
2022/04/03 00:43:08;;;;;;;2.43;1.90;;;4.10;1.00;;;;;;5067431;28;20713;-54
2022/04/03 00:45:34;;;;;;;2.13;1.87;;;2.90;1.00;;;;;;5068275;28;20445;-54
2022/04/03 00:48:00;;;;;;;2.17;1.80;;;4.20;1.00;;;;;;5063852;28;20198;-58
2022/04/03 00:50:25;;;;;;;5.03;2.50;;;4.10;1.00;;;;;;5066072;28;20249;-54
2022/04/03 00:52:51;;;;;;;4.10;1.83;;;4.20;1.00;;;;;;5066165;28;20339;-53
2022/04/03 00:55:17;;;;;;;2.53;2.20;;;;;;;;;;5068376;28;20188;-54
2022/04/03 00:57:43;;;;;;;3.93;2.37;;;4.20;1.00;;;;;;5068088;28;20186;-55
2022/04/03 01:00:12;;;;;;;2.90;1.83;;;4.30;1.00;;;;;;5067023;28;20477;-56
2022/04/03 01:02:38;;;;;;;2.27;1.70;;;4.30;1.00;;;;;;5066602;28;20799;-56
2022/04/03 01:05:05;;;;;;;2.63;2.00;;;4.20;1.00;;;;;;5068959;28;20441;-56
2022/04/03 01:07:30;;;;;;;3.83;2.30;;;4.00;1.00;;;;;;5062974;28;20982;-56
2022/04/03 01:09:56;;;;;;;3.03;1.93;;;4.00;1.00;;;;;;5072054;28;20524;-54
2022/04/03 01:12:21;;;;;;;2.20;1.60;;;4.10;1.00;;;;;;5051416;28;20482;-54
2022/04/03 01:14:47;;;;;;;3.20;1.70;;;3.90;1.00;;;;;;5070732;28;20633;-54
2022/04/03 01:17:14;;;;;;;3.13;1.90;;;3.80;1.00;;;;;;5072411;28;20176;-56
2022/04/03 01:19:40;;;;;;;5.57;1.70;;;4.00;1.00;;;;;;5069584;28;20648;-56
2022/04/03 01:22:06;;;;;;;1.93;1.70;;;3.90;1.00;;;;;;5073430;28;20448;-56
2022/04/03 01:24:32;;;;;;;2.70;1.40;;;3.80;1.00;;;;;;5071461;28;20450;-54
2022/04/03 01:26:58;;;;;;;3.53;2.10;;;;;;;;;;5070668;28;20464;-54
2022/04/03 01:29:24;;;;;;;2.10;1.83;;;3.80;1.00;;;;;;5068280;28;20457;-55
2022/04/03 01:31:50;;;;;;;3.00;1.77;;;3.80;1.00;;;;;;5072488;28;20947;-54
2022/04/03 01:34:17;;;;;;;2.73;1.60;;;3.80;1.00;;;;;;5071117;28;20972;-54
2022/04/03 01:36:43;;;;;;;2.83;2.10;;;3.70;1.00;;;;;;5069312;28;20468;-55
2022/04/03 01:39:12;;;;;;;3.80;1.80;;;3.80;1.00;;;;;;5070357;28;20441;-53
2022/04/03 01:41:41;;;;;;;2.87;1.83;;;3.60;1.00;;;;;;5068763;28;20784;-58
2022/04/03 01:44:09;;;;;;;3.53;1.90;;;3.60;1.00;;;;;;5068771;28;20450;-56
2022/04/03 01:46:36;;;;;;;2.60;1.63;;;3.60;1.00;;;;;;5070408;28;20449;-54
2022/04/03 01:49:04;;;;;;;2.67;1.90;;;3.50;1.00;;;;;;5070880;28;20540;-54
2022/04/03 01:51:30;;;;;;;1.83;1.60;;;3.50;1.00;;;;;;5071208;28;21031;-54
2022/04/03 01:53:55;;;;;;;2.90;1.80;;;3.50;1.00;;;;;;5071065;28;20445;-54
2022/04/03 01:56:21;;;;;;;1.50;1.40;;;3.40;1.00;;;;;;5072390;28;20436;-56
2022/04/03 01:58:46;;;;;;;3.30;1.70;;;3.20;1.00;;;;;;5068871;28;20283;-55
2022/04/03 02:01:12;;;;;;;3.30;2.00;;;3.20;1.00;;;;;;5070106;28;20187;-54
2022/04/03 02:03:37;;;;;;;4.93;2.00;;;3.20;1.00;;;;;;5071825;28;20214;-55
2022/04/03 02:06:06;;;;;;;4.37;1.83;;;3.40;1.00;;;;;;5070873;28;20184;-54
2022/04/03 02:08:32;;;;;;;1.63;1.53;;;3.40;1.00;;;;;;5067015;28;20187;-55
2022/04/03 02:10:58;;;;;;;2.27;1.50;;;3.60;1.00;;;;;;5067691;28;20964;-55
2022/04/03 02:13:24;;;;;;;1.87;1.03;;;3.60;1.00;;;;;;5065129;28;20215;-53
2022/04/03 02:15:49;;;;;;;1.73;1.63;;;3.20;1.00;;;;;;5073600;28;20851;-55
2022/04/03 02:18:15;;;;;;;2.00;1.50;;;3.40;1.00;;;;;;5069969;28;20590;-55
2022/04/03 02:20:40;;;;;;;2.10;1.53;;;3.40;1.00;;;;;;5070208;28;20739;-55
2022/04/03 02:23:06;;;;;;;2.70;1.60;;;3.40;1.00;;;;;;5070595;28;20199;-54
2022/04/03 02:25:32;;;;;;;1.63;1.40;;;3.40;1.00;;;;;;5068584;28;20291;-55
2022/04/03 02:27:59;;;;;;;1.80;1.40;;;3.20;1.00;;;;;;5066252;28;20195;-54
2022/04/03 02:30:25;;;;;;;5.37;1.97;;;3.20;1.00;;;;;;5068499;28;20270;-56
2022/04/03 02:32:51;;;;;;;3.40;2.37;;;3.20;1.00;;;;;;5069268;28;20510;-56
2022/04/03 02:35:17;;;;;;;2.53;1.63;;;3.20;1.00;;;;;;5050174;28;20450;-55
2022/04/03 02:37:43;;;;;;;2.10;1.90;;;3.20;1.00;;;;;;5069893;28;20445;-54
2022/04/03 02:40:12;;;;;;;2.30;1.57;;;3.10;1.00;;;;;;5067585;28;20937;-55
2022/04/03 02:42:38;;;;;;;2.80;1.73;;;3.10;1.00;;;;;;5067720;28;20943;-55
2022/04/03 02:45:05;;;;;;;1.40;1.30;;;2.90;1.00;;;;;;5071644;28;20537;-54
2022/04/03 02:47:32;;;;;;;2.23;1.80;;;2.70;1.00;;;;;;5068779;28;20947;-54
2022/04/03 02:49:57;;;;;;;1.80;1.40;;;2.50;1.00;;;;;;5069654;28;20989;-54
2022/04/03 02:52:23;;;;;;;3.27;1.90;;;2.50;1.00;;;;;;5070151;28;20489;-55
2022/04/03 02:54:48;;;;;;;2.40;1.97;;;2.40;1.00;;;;;;5070859;28;20253;-54
2022/04/03 02:57:16;;;;;;;4.07;1.47;;;2.50;1.00;;;;;;5065254;28;20602;-54
2022/04/03 02:59:43;;;;;;;3.30;2.40;;;2.50;1.00;;;;;;5071091;28;20188;-55
2022/04/03 03:02:08;;;;;;;4.90;2.00;;;2.40;1.00;;;;;;5071366;28;20438;-54
2022/04/03 03:04:35;;;;;;;3.20;1.93;;;;;;;;;;5069634;28;20437;-55
2022/04/03 03:07:02;;;;;;;2.70;1.57;;;2.40;1.00;;;;;;5070062;28;20188;-54
2022/04/03 03:09:28;;;;;;;3.67;2.27;;;2.40;1.00;;;;;;5070682;28;20477;-56
2022/04/03 03:11:53;;;;;;;3.60;2.00;;;2.40;1.00;;;;;;5064825;28;20474;-54
2022/04/03 03:14:19;;;;;;;2.40;2.20;;;;;;;;;;5070937;28;20188;-54
2022/04/03 03:16:45;;;;;;;2.60;1.97;;;2.20;1.00;;;;;;5069858;28;20584;-55
2022/04/03 03:19:10;;;;;;;3.30;2.00;;;2.10;1.00;;;;;;5071311;28;20979;-54
2022/04/03 03:21:36;;;;;;;3.20;2.20;;;2.10;1.00;;;;;;5066525;28;20188;-54
2022/04/03 03:24:02;;;;;;;5.50;2.40;;;2.20;1.00;;;;;;5070869;28;20180;-56
2022/04/03 03:26:28;;;;;;;1.93;1.63;;;2.20;1.00;;;;;;5067453;28;20954;-54
2022/04/03 03:28:53;;;;;;;3.00;2.63;;;2.00;1.00;;;;;;5069982;28;20962;-54
2022/04/03 03:31:19;;;;;;;2.03;1.80;;;1.80;1.00;;;;;;5065182;28;20259;-55
2022/04/03 03:33:48;;;;;;;2.20;2.00;;;1.90;1.00;;;;;;5068574;28;20541;-54
2022/04/03 03:36:14;;;;;;;2.73;1.90;;;1.90;1.00;;;;;;5068949;28;20469;-55
2022/04/03 03:38:40;;;;;;;2.60;1.80;;;;;;;;;;5070534;28;20907;-54
2022/04/03 03:41:06;;;;;;;3.87;2.70;;;1.70;1.00;;;;;;5064808;28;20798;-57
2022/04/03 03:43:31;;;;;;;5.10;2.20;;;1.70;1.00;;;;;;5066874;28;20858;-56
2022/04/03 03:45:57;;;;;;;2.30;1.90;;;1.60;1.00;;;;;;5068818;28;20179;-54
2022/04/03 03:48:23;;;;;;;1.93;1.50;;;1.50;1.00;;;;;;5070319;28;20186;-53
2022/04/03 03:50:49;;;;;;;3.27;1.93;;;1.50;1.00;;;;;;5068398;28;20187;-54
2022/04/03 03:53:14;;;;;;;2.33;2.13;;;1.40;1.00;;;;;;5068768;28;21027;-54
2022/04/03 03:55:40;;;;;;;3.57;2.00;;;1.40;1.00;;;;;;5067798;28;20191;-56
2022/04/03 03:58:06;;;;;;;4.20;2.60;;;;;;;;;;5068402;28;20585;-56
2022/04/03 04:00:32;;;;;;;3.23;2.30;;;1.40;1.00;;;;;;5069954;28;20179;-53
2022/04/03 04:02:57;;;;;;;5.00;3.80;;;1.40;1.00;;;;;;5070128;28;20606;-54
2022/04/03 04:05:23;;;;;;;5.07;2.60;;;1.30;1.00;;;;;;5066147;28;20201;-54
2022/04/03 04:07:49;;;;;;;5.90;2.50;;;1.40;1.00;;;;;;5047207;28;20191;-55
2022/04/03 04:10:16;;;;;;;2.57;2.20;;;1.30;1.00;;;;;;5067871;28;20559;-55
2022/04/03 04:12:44;;;;;;;3.13;2.57;;;1.30;1.00;;;;;;5068544;28;20853;-55
2022/04/03 04:15:10;;;;;;;2.87;1.80;;;1.20;1.00;;;;;;5068221;28;20446;-54
2022/04/03 04:17:38;;;;;;;6.93;2.87;;;1.20;1.00;;;;;;5068275;28;20449;-55
2022/04/03 04:20:12;;;;;;;4.30;2.67;;;1.10;1.00;;;;;;5068435;28;20449;-55
2022/04/03 04:22:39;;;;;;;4.07;2.40;;;1.10;1.00;;;;;;5065070;28;20448;-54
2022/04/03 04:25:05;;;;;;;3.40;2.43;;;1.20;1.00;;;;;;5070024;28;20434;-56
2022/04/03 04:27:31;;;;;;;3.83;2.63;;;1.30;1.00;;;;;;5065099;28;20461;-54
2022/04/03 04:29:57;;;;;;;3.20;2.40;;;1.20;1.00;;;;;;5070396;28;20446;-55
2022/04/03 04:32:23;;;;;;;6.67;2.90;;;1.30;1.00;;;;;;5068067;28;20241;-55
2022/04/03 04:34:50;;;;;;;4.60;3.10;;;1.20;1.00;;;;;;5047008;28;20278;-55
2022/04/03 04:37:16;;;;;;;4.30;2.43;;;1.20;1.00;;;;;;5068422;28;20887;-55
2022/04/03 04:39:42;;;;;;;4.90;2.60;;;1.20;1.00;;;;;;5066636;28;20446;-54
2022/04/03 04:42:08;;;;;;;5.63;3.47;;;;;;;;;;5066524;28;20792;-55
2022/04/03 04:44:33;;;;;;;7.80;3.23;;;1.30;1.00;;;;;;5068568;28;20958;-54
2022/04/03 04:46:59;;;;;;;6.63;2.53;;;1.20;1.00;;;;;;5065171;28;20533;-53
2022/04/03 04:49:25;;;;;;;5.27;3.30;;;;;;;;;;5067238;28;20266;-54
2022/04/03 04:51:50;;;;;;;4.80;2.70;;;1.10;1.00;;;;;;5065027;28;20207;-54
2022/04/03 04:54:16;;;;;;;4.03;2.60;;;1.10;1.00;;;;;;5065999;28;20453;-55
2022/04/03 04:56:42;;;;;;;3.50;2.70;;;1.00;1.00;;;;;;5069488;28;20637;-54
2022/04/03 04:59:08;;;;;;;4.93;2.80;;;;;;;;;;5066088;28;20199;-55
2022/04/03 05:01:33;;;;;;;3.37;2.50;;;1.10;1.00;;;;;;5063719;28;20282;-55
2022/04/03 05:03:59;;;;;;;3.60;2.47;;;1.00;1.00;;;;;;5068710;28;20550;-55
2022/04/03 05:06:26;;;;;;;6.70;3.87;;;1.10;1.00;;;;;;5066426;28;20686;-55
2022/04/03 05:08:53;;;;;;;3.60;2.90;;;1.00;1.00;;;;;;5068728;28;20615;-53
2022/04/03 05:11:19;;;;;;;4.60;3.37;;;0.90;1.00;;;;;;5067277;28;20965;-54
2022/04/03 05:13:45;;;;;;;4.90;3.00;;;1.00;1.00;;;;;;5065934;28;20441;-56
2022/04/03 05:16:11;;;;;;;2.90;2.60;;;1.00;1.00;;;;;;5066457;28;20653;-54
2022/04/03 05:18:37;;;;;;;5.23;2.70;;;0.90;1.00;;;;;;5067393;28;20599;-54
2022/04/03 05:21:08;;;;;;;2.83;2.60;;;1.00;1.00;;;;;;5063667;28;20252;-57
2022/04/03 05:23:33;;;;;;;4.30;2.93;;;0.80;1.00;;;;;;5068309;28;20528;-54
2022/04/03 05:25:59;;;;;;;3.57;2.83;;;0.90;1.00;;;;;;5067766;28;21169;-54
2022/04/03 05:28:26;;;;;;;3.40;2.77;;;0.80;1.00;;;;;;5068331;28;20270;-54
2022/04/03 05:30:52;;;;;;;2.20;2.00;;;1.00;1.00;;;;;;5065591;28;20472;-55
2022/04/03 05:33:18;;;;;;;2.90;2.47;;;1.00;1.00;;;;;;5066059;28;20457;-54
2022/04/03 05:35:43;;;;;;;5.90;3.87;;;1.10;1.00;;;;;;5066353;28;20245;-53
2022/04/03 05:38:09;;;;;;;4.97;3.27;;;1.00;1.00;;;;;;5050446;28;20278;-53
2022/04/03 05:40:35;;;;;;;3.43;2.50;;;1.10;1.00;;;;;;5055796;28;20190;-55
2022/04/03 05:43:01;;;;;;;5.00;3.00;;;;;;;;;;5064577;28;20214;-55
2022/04/03 05:45:27;;;;;;;5.50;2.70;;;1.10;1.00;;;;;;5066521;28;20197;-54
2022/04/03 05:47:53;;;;;;;6.30;3.10;;;1.20;1.00;;;;;;5066873;28;20454;-55
2022/04/03 05:50:19;;;;;;;5.00;2.97;;;1.20;1.00;;;;;;5066987;28;20456;-55
2022/04/03 05:52:49;;;;;;;3.93;2.73;;;1.20;1.00;;;;;;5064463;28;21032;-55
2022/04/03 05:55:17;;;;;;;2.60;2.40;;;1.40;1.00;;;;;;5067174;28;21045;-55
2022/04/03 05:57:43;;;;;;;3.03;2.77;;;1.40;1.00;;;;;;5063649;28;20468;-56
2022/04/03 06:00:12;;;;;;;5.20;3.40;;;1.60;1.00;;;;;;5069107;28;20465;-54
2022/04/03 06:02:51;;;;;;;4.37;2.73;;;1.70;1.00;;;;;;5055069;28;20461;-56
2022/04/03 06:05:19;;;;;;;5.00;2.97;;;1.70;1.00;;;;;;5069004;28;20540;-55
2022/04/03 06:07:44;;;;;;;2.93;2.70;;;1.70;1.00;;;;;;5070870;28;20449;-55
2022/04/03 06:10:10;;;;;;;4.67;3.17;;;1.70;1.00;;;;;;5065776;28;20503;-57
2022/04/03 06:12:36;;;;;;;5.80;3.10;;;1.60;1.00;;;;;;5065553;28;20340;-54
2022/04/03 06:15:01;;;;;;;3.60;2.77;;;1.60;1.00;;;;;;5067142;28;20330;-56
2022/04/03 06:17:27;;;;;;;5.07;3.03;;;1.60;1.00;;;;;;5070840;28;20203;-54
2022/04/03 06:19:53;;;;;;;4.40;3.17;;;1.60;1.00;;;;;;5066880;28;20210;-56
2022/04/03 06:22:18;;;;;;;3.93;2.90;;;;;;;;;;5068191;28;20197;-56
2022/04/03 06:24:44;;;;;;;3.13;2.20;;;1.80;1.00;;;;;;5070180;28;20191;-54
2022/04/03 06:27:10;;;;;;;3.80;2.97;;;1.70;1.00;;;;;;5070470;28;20456;-54
2022/04/03 06:29:35;;;;;;;6.60;3.60;;;1.70;1.00;;;;;;5069844;28;20198;-55
2022/04/03 06:32:00;;;;;;;5.90;3.23;;;1.90;1.00;;;;;;5068960;28;20200;-54
2022/04/03 06:34:26;;;;;;;3.43;2.87;;;1.90;1.00;;;;;;5069646;28;20244;-55
2022/04/03 06:36:53;;;;;;;3.70;2.70;;;2.10;1.00;;;;;;5070154;28;20578;-55
2022/04/03 06:39:18;;;;;;;5.30;3.43;;;2.30;1.00;;;;;;5065505;28;20287;-57
2022/04/03 06:41:44;;;;;;;2.73;2.53;;;;;;;;;;5067625;28;20540;-55
2022/04/03 06:44:10;;;;;;;3.73;3.20;;;2.40;1.00;;;;;;5066895;28;20187;-54
2022/04/03 06:46:36;;;;;;;5.43;3.23;;;2.50;1.00;;;;;;5068372;28;20464;-56
2022/04/03 06:49:01;;;;;;;2.80;2.60;;;2.70;1.00;;;;;;5069799;28;20179;-56
2022/04/03 06:51:27;;;;;;;2.73;2.33;;;2.80;1.00;;;;;;5067152;28;20199;-54
2022/04/03 06:53:52;;;;;;;5.60;2.43;;;3.00;1.00;;;;;;5072042;28;20175;-53
2022/04/03 06:56:19;;;;;;;5.33;3.53;;;3.10;1.00;;;;;;5068278;28;20217;-56
2022/04/03 06:58:45;;;;;;;6.10;3.40;;;3.20;1.00;;;;;;5070019;28;20195;-55
2022/04/03 07:01:11;;;;;;;3.40;3.10;;;3.20;1.00;;;;;;5068154;28;20457;-55
2022/04/03 07:03:36;;;;;;;6.90;3.67;;;3.20;1.00;;;;;;5071523;28;20248;-55
2022/04/03 07:06:05;;;;;;;4.97;3.70;;;3.40;1.00;;;;;;5071117;28;20263;-56
2022/04/03 07:08:31;;;;;;;4.07;3.37;;;3.50;1.00;;;;;;5073152;28;20804;-56
2022/04/03 07:10:57;;;;;;;3.77;3.30;;;3.50;1.00;;;;;;5072092;28;20517;-54
2022/04/03 07:13:23;;;;;;;3.10;2.90;;;3.50;1.00;;;;;;5071593;28;20560;-56
2022/04/03 07:15:51;;;;;;;5.43;2.87;;;3.50;1.00;;;;;;5071301;28;20183;-56
2022/04/03 07:18:17;;;;;;;4.10;2.53;;;3.60;1.00;;;;;;5073492;28;20179;-56
2022/04/03 07:20:46;;;;;;;3.83;3.03;;;3.80;1.00;;;;;;5072117;28;20949;-55
2022/04/03 07:23:12;;;;;;;4.43;2.70;;;;;;;;;;5070018;28;20709;-56
2022/04/03 07:25:38;;;;;;;3.30;2.80;;;3.70;1.00;;;;;;5068047;28;20441;-55
2022/04/03 07:28:04;;;;;;;3.30;2.90;;;3.90;1.00;;;;;;5071553;28;20433;-55
2022/04/03 07:30:29;;;;;;;5.40;3.40;;;3.90;1.00;;;;;;5071264;28;20191;-54
2022/04/03 07:32:55;;;;;;;6.60;2.90;;;3.80;1.00;;;;;;5069658;28;20469;-55
2022/04/03 07:35:20;;;;;;;6.87;2.90;;;4.00;1.00;;;;;;5069313;28;21616;-55
2022/04/03 07:37:46;;;;;;;5.60;2.97;;;4.00;1.00;;;;;;5071002;28;20198;-56
2022/04/03 07:40:12;;;;;;;3.43;2.37;;;4.40;1.00;;;;;;5067590;28;20653;-57
2022/04/03 07:42:39;;;;;;;5.10;2.60;;;4.30;1.00;;;;;;5071367;28;20191;-56
2022/04/03 07:45:05;;;;;;;3.47;2.70;;;4.80;1.00;;;;;;5069843;28;20537;-56
2022/04/03 07:47:31;;;;;;;2.80;2.57;;;5.00;1.00;;;;;;5071565;28;20524;-56
2022/04/03 07:49:56;;;;;;;5.10;2.47;;;5.10;1.00;;;;;;5072598;28;20445;-55
2022/04/03 07:52:22;;;;;;;3.00;2.50;;;5.20;1.00;;;;;;5070052;28;20199;-55
2022/04/03 07:54:48;;;;;;;2.27;1.90;;;5.40;1.00;;;;;;5070453;28;20187;-58
2022/04/03 07:57:19;;;;;;;2.70;2.27;;;5.70;1.00;;;;;;5071220;28;20656;-57
2022/04/03 07:59:44;;;;;;;5.07;2.27;;;5.90;1.00;;;;;;5070283;28;20179;-55
2022/04/03 08:02:10;;;;;;;5.00;2.60;;;6.00;1.00;;;;;;5070210;28;20456;-57
2022/04/03 08:04:35;;;;;;;2.73;2.20;;;6.30;1.00;;;;;;5069711;28;20206;-56
2022/04/03 08:07:01;;;;;;;4.30;1.97;;;6.20;1.00;;;;;;5072632;28;20176;-55
2022/04/03 08:09:26;;;;;;;3.10;2.33;;;6.20;1.00;;;;;;5071765;28;20214;-56
2022/04/03 08:11:52;;;;;;;3.63;2.27;;;6.20;1.00;;;;;;5072295;28;20196;-55
2022/04/03 08:14:18;;;;;;;3.60;2.50;;;6.30;1.00;;;;;;5069296;28;20580;-58
2022/04/03 08:16:44;;;;;;;2.33;2.13;;;6.10;1.00;;;;;;5070203;28;20271;-58
2022/04/03 08:19:09;;;;;;;4.10;2.43;;;6.00;1.00;;;;;;5069986;28;20460;-57
2022/04/03 08:21:35;;;;;;;3.70;2.43;;;6.10;1.00;;;;;;5070726;28;20228;-58
2022/04/03 08:24:01;;;;;;;2.20;2.00;;;5.90;1.00;;;;;;5071549;28;20188;-58
2022/04/03 08:26:26;;;;;;;2.33;2.13;;;5.90;1.00;;;;;;5072591;28;20175;-57
2022/04/03 08:28:56;;;;;;;4.13;2.23;;;;;;;;;;5070369;28;20441;-58
2022/04/03 08:31:27;;;;;;;2.57;1.83;;;6.20;1.00;;;;;;5069126;28;20182;-59
2022/04/03 08:33:54;;;;;;;3.73;2.13;;;6.40;1.00;;;;;;5054298;28;20438;-56
2022/04/03 08:36:20;;;;;;;2.73;1.70;;;6.70;1.00;;;;;;5068914;28;20989;-57
2022/04/03 08:38:46;;;;;;;2.90;2.10;;;6.70;1.00;;;;;;5051786;28;20436;-57
2022/04/03 08:41:12;;;;;;;2.27;1.47;;;6.50;1.00;;;;;;5068814;28;20460;-55
2022/04/03 08:43:40;;;;;;;2.50;1.00;;;6.50;1.00;;;;;;5067397;28;20450;-56
2022/04/03 08:46:09;;;;;;;1.80;1.33;;;6.40;1.00;;;;;;5071073;28;20442;-55
2022/04/03 08:48:41;;;;;;;2.23;1.70;;;6.10;1.00;;;;;;5064700;28;20571;-55
2022/04/03 08:51:07;;;;;;;4.13;1.40;;;6.30;1.00;;;;;;5073060;28;20480;-57
2022/04/03 08:53:33;;;;;;;2.20;1.00;;;6.70;1.00;;;;;;5071642;28;20550;-58
2022/04/03 08:55:59;;;;;;;3.13;1.37;;;6.60;1.00;;;;;;5068174;28;20306;-55
2022/04/03 08:58:25;;;;;;;1.50;1.10;;;6.60;1.00;;;;;;5071757;28;20444;-59
2022/04/03 09:00:51;;;;;;;2.07;1.60;;;6.60;1.00;;;;;;5070400;28;20477;-57
2022/04/03 09:03:16;;;;;;;2.77;1.53;;;6.70;1.00;;;;;;5069513;28;20481;-60
2022/04/03 09:05:43;;;;;;;3.27;1.77;;;6.70;1.00;;;;;;5069340;28;20294;-59
2022/04/03 09:08:09;;;;;;;2.30;1.10;;;6.70;1.00;;;;;;5067939;28;20541;-57
2022/04/03 09:10:36;;;;;;;3.03;1.43;;;6.70;1.00;;;;;;5069328;28;20996;-57
2022/04/03 09:13:02;;;;;;;1.67;1.40;;;6.80;1.00;;;;;;5068566;28;20465;-58
2022/04/03 09:15:30;;;;;;;3.20;1.80;;;7.10;1.00;;;;;;5068772;28;20970;-57
2022/04/03 09:17:58;;;;;;;1.50;1.40;;;7.40;1.00;;;;;;5069326;28;20446;-58
2022/04/03 09:20:32;;;;;;;1.90;1.60;;;7.40;1.00;;;;;;5070546;28;20472;-59
2022/04/03 09:23:01;;;;;;;4.40;1.73;;;7.30;1.00;;;;;;5069021;28;20443;-59
2022/04/03 09:25:28;;;;;;;2.10;1.53;;;7.00;1.00;;;;;;5068945;28;20438;-59
2022/04/03 09:27:56;;;;;;;2.70;2.00;;;6.60;1.00;;;;;;5069096;28;20483;-58
2022/04/03 09:30:24;;;;;;;2.83;1.90;;;6.80;1.00;;;;;;5072254;28;20460;-61
2022/04/03 09:32:51;;;;;;;3.70;2.10;;;6.70;1.00;;;;;;5071615;28;20465;-59
2022/04/03 09:35:21;;;;;;;1.50;1.40;;;6.40;1.00;;;;;;5072582;28;20438;-58
2022/04/03 09:38:12;;;;;;;1.90;1.70;;;6.50;1.00;;;;;;5074562;28;20905;-61
2022/04/03 09:40:43;;;;;;;1.60;1.33;;;6.50;1.00;;;;;;5074046;28;20971;-57
2022/04/03 09:43:24;;;;;;;2.80;1.67;;;6.60;1.00;;;;;;5074689;28;20456;-61
2022/04/03 09:45:58;;;;;;;2.97;1.50;;;6.60;1.00;;;;;;5073832;28;20441;-58
2022/04/03 09:48:35;;;;;;;2.33;2.13;;;6.60;1.00;;;;;;5053277;28;20540;-59
2022/04/03 09:51:07;;;;;;;2.13;1.60;;;6.60;1.00;;;;;;5072131;28;20503;-59
2022/04/03 09:53:53;;;;;;;1.80;1.50;;;6.80;1.00;;;;;;5072050;28;20477;-57
2022/04/03 09:56:22;;;;;;;1.90;1.50;;;6.90;1.00;;;;;;5051025;28;20524;-58
2022/04/03 09:58:50;;;;;;;2.03;1.60;;;7.00;1.00;;;;;;5071681;28;20446;-58
2022/04/03 10:01:23;;;;;;;2.07;1.60;;;6.30;1.00;;;;;;5071950;28;20510;-58
2022/04/03 10:03:49;;;;;;;2.20;2.00;;;6.30;1.00;;;;;;5070379;28;20484;-58
2022/04/03 10:06:16;;;;;;;2.73;1.60;;;6.40;1.00;;;;;;5068780;28;20438;-57
2022/04/03 10:08:42;;;;;;;2.00;1.20;;;;;;;;;;5069052;28;20526;-58
2022/04/03 10:11:08;;;;;;;3.33;1.70;;;6.10;1.00;;;;;;5071089;28;20441;-59
2022/04/03 10:13:35;;;;;;;7.53;4.40;;;6.20;1.00;;;;;;5073132;28;20472;-58
2022/04/03 10:16:01;;;;;;;3.13;2.43;;;6.70;1.00;;;;;;5070205;28;21169;-58
2022/04/03 10:18:26;;;;;;;8.53;2.90;;;6.80;1.00;;;;;;5071641;28;20484;-58
2022/04/03 10:20:53;;;;;;;2.83;1.80;;;7.10;1.00;;;;;;5072637;28;20222;-58
2022/04/03 10:23:21;;;;;;;2.20;1.50;;;7.40;1.00;;;;;;5072167;28;20860;-58
2022/04/03 10:25:49;;;;;;;4.33;1.80;;;7.60;1.00;;;;;;5072066;28;20480;-59
2022/04/03 10:28:18;;;;;;;4.37;1.90;;;7.60;1.00;;;;;;5072511;28;20442;-58
2022/04/03 10:30:44;;;;;;;1.97;1.70;;;7.30;1.00;;;;;;5072105;28;20919;-58
2022/04/03 10:33:20;;;;;;;2.30;1.87;;;7.50;1.00;;;;;;5072202;28;20472;-58
2022/04/03 10:36:04;;;;;;;1.70;1.60;;;7.60;1.00;;;;;;5071910;28;20640;-59
2022/04/03 10:38:35;;;;;;;1.30;1.20;;;7.50;1.00;;;;;;5070301;28;20437;-58
2022/04/03 10:41:01;;;;;;;1.60;1.23;;;7.40;1.00;;;;;;5071023;28;20464;-57
2022/04/03 10:43:29;;;;;;;2.10;1.30;;;6.80;1.00;;;;;;5072032;28;21002;-58
2022/04/03 10:45:55;;;;;;;1.70;1.53;;;6.80;1.00;;;;;;5072136;28;20183;-58
2022/04/03 10:48:21;;;;;;;2.27;1.50;;;6.30;1.00;;;;;;5071630;28;20461;-58
2022/04/03 10:51:23;;;;;;;1.60;1.50;;;6.30;1.00;;;;;;5072954;28;20849;-60
2022/04/03 10:53:54;;;;;;;1.50;1.40;;;6.50;1.00;;;;;;5071514;28;20190;-58
2022/04/03 10:56:25;;;;;;;2.17;1.97;;;6.80;1.00;;;;;;5071810;28;20503;-59
2022/04/03 10:58:53;;;;;;;4.00;1.40;;;7.00;1.00;;;;;;5071756;28;20522;-59
2022/04/03 11:01:31;;;;;;;3.43;2.07;;;7.00;1.00;;;;;;5071122;28;20452;-59
2022/04/03 11:04:09;;;;;;;3.37;2.07;;;7.30;1.00;;;;;;5071470;28;20438;-58
2022/04/03 11:06:39;;;;;;;2.17;1.80;;;7.40;1.00;;;;;;5071179;28;20441;-60
2022/04/03 11:09:06;;;;;;;1.97;1.40;;;;;;;;;;5072029;28;20461;-59
2022/04/03 11:11:38;;;;;;;2.07;1.57;;;8.10;1.00;;;;;;5070154;28;20452;-57
2022/04/03 11:14:09;;;;;;;2.40;1.37;;;8.10;1.00;;;;;;5069210;28;20426;-58
2022/04/03 11:16:55;;;;;;;2.10;1.90;;;7.90;1.00;;;;;;5052480;28;20433;-58
2022/04/03 11:19:45;;;;;;;2.57;1.50;;;7.60;1.00;;;;;;5070855;28;20862;-57
2022/04/03 11:22:17;;;;;;;3.80;1.50;;;7.60;1.00;;;;;;5049654;28;20441;-60
2022/04/03 11:24:43;;;;;;;3.83;1.90;;;7.60;1.00;;;;;;5068996;28;20448;-60
2022/04/03 11:27:09;;;;;;;4.23;1.60;;;8.40;1.00;;;;;;5068941;28;20449;-59
2022/04/03 11:29:35;;;;;;;3.23;1.10;;;8.50;1.00;;;;;;5070212;28;20518;-58
2022/04/03 11:32:06;;;;;;;1.80;1.30;;;8.10;1.00;;;;;;5069951;28;20473;-58
2022/04/03 11:34:32;;;;;;;1.70;1.57;;;8.10;1.00;;;;;;5069129;28;20814;-60
2022/04/03 11:37:00;;;;;;;1.50;1.40;;;7.90;1.00;;;;;;5069806;28;20437;-58
2022/04/03 11:39:35;;;;;;;2.83;1.77;;;8.00;1.00;;;;;;5053129;28;20799;-58
2022/04/03 11:42:10;;;;;;;2.40;1.50;;;7.80;1.00;;;;;;5069915;28;20441;-59
2022/04/03 11:44:37;;;;;;;2.20;1.40;;;7.50;1.00;;;;;;5070211;28;20794;-58
2022/04/03 11:47:05;;;;;;;1.83;1.60;;;7.60;1.00;;;;;;5070924;28;20464;-58
2022/04/03 11:49:32;;;;;;;2.90;1.90;;;7.50;1.00;;;;;;5071298;28;20457;-58
2022/04/03 11:52:09;;;;;;;2.60;1.83;;;7.40;1.00;;;;;;5070721;28;20791;-59
2022/04/03 11:54:36;;;;;;;3.70;1.77;;;7.20;1.00;;;;;;5053179;28;20941;-58
2022/04/03 11:57:04;;;;;;;3.40;2.07;;;6.90;1.00;;;;;;5068593;28;20487;-57
2022/04/03 11:59:33;;;;;;;2.33;2.00;;;6.90;1.00;;;;;;5070799;28;20448;-57
2022/04/03 12:01:59;;;;;;;2.20;2.00;;;6.80;1.00;;;;;;5070819;28;20490;-59
2022/04/03 12:04:24;;;;;;;3.57;2.00;;;6.60;1.00;;;;;;5071093;28;20938;-58
2022/04/03 12:06:58;;;;;;;2.70;1.80;;;6.70;1.00;;;;;;5070667;28;20437;-58
2022/04/03 12:09:24;;;;;;;3.37;2.00;;;6.60;1.00;;;;;;5070774;28;20222;-58
2022/04/03 12:11:53;;;;;;;3.77;1.83;;;6.90;1.00;;;;;;5070557;28;20476;-57
2022/04/03 12:14:23;;;;;;;2.30;2.03;;;7.00;1.00;;;;;;5071118;28;20438;-58
2022/04/03 12:17:04;;;;;;;2.27;1.93;;;8.10;1.00;;;;;;5070457;28;20962;-57
2022/04/03 12:19:34;;;;;;;1.87;1.60;;;8.20;1.00;;;;;;5070379;28;20456;-57
2022/04/03 12:22:04;;;;;;;2.87;2.10;;;7.70;1.00;;;;;;5069551;28;20898;-58
2022/04/03 12:24:31;;;;;;;2.17;1.97;;;7.30;1.00;;;;;;5070451;28;20521;-59
2022/04/03 12:26:59;;;;;;;6.07;1.80;;;7.30;1.00;;;;;;5070248;28;20445;-58
2022/04/03 12:29:27;;;;;;;2.60;2.00;;;7.20;1.00;;;;;;5070713;28;20484;-58
2022/04/03 12:32:03;;;;;;;3.57;2.10;;;7.00;1.00;;;;;;5070390;28;20555;-60
2022/04/03 12:34:32;;;;;;;3.10;2.50;;;7.00;1.00;;;;;;5070481;28;20444;-60
2022/04/03 12:36:59;;;;;;;2.90;2.10;;;7.00;1.00;;;;;;5070044;28;20440;-60
2022/04/03 12:39:38;;;;;;;2.23;2.03;;;7.00;1.00;;;;;;5073053;28;20871;-58
2022/04/03 12:42:22;;;;;;;2.33;1.97;;;7.40;1.00;;;;;;5071013;28;20530;-58
2022/04/03 12:45:11;;;;;;;3.63;2.60;;;8.00;1.00;;;;;;5070448;28;20465;-58
2022/04/03 12:47:38;;;;;;;1.90;1.50;;;8.20;1.00;;;;;;5071781;28;20428;-59
2022/04/03 12:50:06;;;;;;;2.80;2.30;;;8.20;1.00;;;;;;5070465;28;20438;-57
2022/04/03 12:53:00;;;;;;;1.97;1.80;;;8.40;1.00;;;;;;5070461;28;20467;-59
2022/04/03 12:55:32;;;;;;;2.00;1.60;;;7.90;1.00;;;;;;5066273;28;20449;-60
2022/04/03 13:01:09;;;;;;;1.90;1.80;;;7.10;1.00;;;;;;5071205;28;20425;-57
2022/04/03 13:03:49;;;;;;;3.37;1.83;;;7.00;1.00;;;;;;5066370;28;20948;-59
2022/04/03 13:06:28;;;;;;;4.20;1.90;;;6.90;1.00;;;;;;5070494;28;20448;-60
2022/04/03 13:09:08;;;;;;;2.37;2.17;;;6.80;1.00;;;;;;5070059;28;20476;-59
2022/04/03 13:11:49;;;;;;;2.30;1.90;;;6.90;1.00;;;;;;5070055;28;20455;-60
2022/04/03 13:14:19;;;;;;;2.87;2.20;;;7.00;1.00;;;;;;5069823;28;20441;-59
2022/04/03 13:16:49;;;;;;;3.33;1.97;;;6.90;1.00;;;;;;5070312;28;20954;-58
2022/04/03 13:19:16;;;;;;;2.40;1.80;;;7.20;1.00;;;;;;5070317;28;20520;-58